CW5193 New Chelsea NF CA current weather conditions

sailwx.info

Wind from 076 at 7 knots gusting 9

Air temperature -0.0° C
Dewpoint -0.6° C

Last reported at 2015-Mar-29 00:50 UTC.
Time now 2015-Mar-29 01:11 UTC

Location: N 48°02' W 053°13'.
View on Google Maps.

See reports from other nearby stations

  
Tides and Currents Weather Stations Pressure Air Temp Water Temp Dewpoint Dewpoint Depression Visibility Wind Speed Wind Dir Waves Ship Positions
date/time (UTC)wind fromknots sea level pressurealtimeterstation pressurevisibilityair tempwater tempwave heightnotes
2015-Mar-29 00:50 076 7 gusting 9 -0.0
2015-Mar-29 00:41 077 7 gusting 9 -0.0
2015-Mar-29 00:30 076 6 gusting 8 -0.0
2015-Mar-29 00:21 077 4 gusting 7 -0.0
2015-Mar-29 00:11 076 6 gusting 7 -0.6
2015-Mar-29 00:01 077 6 gusting 10 -0.6
2015-Mar-28 23:50 077 7 gusting 9 -0.6
2015-Mar-28 23:40 076 7 gusting 8 -0.6
2015-Mar-28 23:31 077 4 gusting 6 -0.6
2015-Mar-28 23:20 077 4 gusting 5 -0.6
2015-Mar-28 23:10 077 4 gusting 6 -0.6
2015-Mar-28 23:01 077 5 gusting 8 -0.6
2015-Mar-28 22:50 076 9 gusting 10 -0.6
2015-Mar-28 22:40 076 7 gusting 10 -0.6
2015-Mar-28 22:31 076 9 gusting 10 -0.6
2015-Mar-28 22:20 077 7 gusting 10 -0.6
2015-Mar-28 22:10 077 8 gusting 10 -0.6
2015-Mar-28 22:00 077 7 gusting 9 -0.6
2015-Mar-28 21:50 076 6 gusting 8 -0.6
2015-Mar-28 21:40 076 5 gusting 7 -0.6
2015-Mar-28 21:31 076 6 gusting 8 -0.6
2015-Mar-28 21:20 077 7 gusting 9 -0.0
2015-Mar-28 21:11 078 8 gusting 12 -0.0
2015-Mar-28 21:00 083 7 gusting 11 -0.0
2015-Mar-28 20:51 093 7 gusting 11 -0.0
2015-Mar-28 20:40 103 9 gusting 11 -0.0
2015-Mar-28 20:31 092 6 gusting 10 -0.0
2015-Mar-28 20:20 094 7 gusting 10 -0.0
2015-Mar-28 20:11 086 6 gusting 9 -0.0
2015-Mar-28 20:01 078 8 gusting 10 -0.0
2015-Mar-28 19:51 061 8 gusting 10 -0.0
2015-Mar-28 19:40 074 7 gusting 9 0.6
2015-Mar-28 19:30 074 7 gusting 9 -0.0
2015-Mar-28 19:20 072 7 gusting 8 -0.0
2015-Mar-28 19:11 080 6 gusting 8 -0.0
2015-Mar-28 19:01 088 6 gusting 9 -0.0
2015-Mar-28 18:51 083 7 gusting 9 0.6
2015-Mar-28 18:40 088 6 gusting 10 0.6
2015-Mar-28 18:31 084 6 gusting 10 0.6
2015-Mar-28 18:20 065 8 gusting 11 0.6
2015-Mar-28 18:11 060 8 gusting 10 0.6
2015-Mar-28 18:00 059 9 gusting 11 0.6
2015-Mar-28 17:51 063 10 gusting 11 0.6
2015-Mar-28 17:41 056 9 gusting 11 1.1
2015-Mar-28 17:30 056 10 gusting 12 1.1
2015-Mar-28 17:21 051 6 gusting 10 1.1
2015-Mar-28 17:10 067 9 gusting 13 1.1
2015-Mar-28 17:00 060 9 gusting 11 1.1
2015-Mar-28 16:51 065 8 gusting 10 1.1
2015-Mar-28 16:41 059 10 gusting 11 1.7
2015-Mar-28 16:31 053 9 gusting 12 1.7
2015-Mar-28 16:21 048 7 gusting 10 2.2
2015-Mar-28 16:10 041 6 gusting 7 2.8
2015-Mar-28 16:01 046 3 gusting 5 2.8
2015-Mar-28 15:50 046 3 gusting 4 2.8
2015-Mar-28 15:41 046 3 gusting 6 3.3
2015-Mar-28 15:30 051 4 gusting 6 3.3
2015-Mar-28 15:21 064 2 gusting 4 2.8
2015-Mar-28 15:10 065 2 gusting 6 3.3
2015-Mar-28 15:01 051 4 gusting 6 3.3
2015-Mar-28 14:50 040 3 gusting 6 3.3
2015-Mar-28 14:41 020 2 gusting 4 3.3
2015-Mar-28 14:31 323 0 gusting 4 3.3
2015-Mar-28 14:20 323 3 gusting 5 3.9
2015-Mar-28 14:11 323 3.9
2015-Mar-28 14:00 323 2 gusting 4 3.3
2015-Mar-28 13:51 319 2.8
2015-Mar-28 13:41 313 1 gusting 3 3.3
2015-Mar-28 13:31 313 1 gusting 4 2.8
2015-Mar-28 13:20 313 2 gusting 4 2.8
2015-Mar-28 13:11 323 2 gusting 5 3.3
2015-Mar-28 13:01 323 4 gusting 5 3.3
2015-Mar-28 12:51 310 2 gusting 4 3.3
2015-Mar-28 12:40 309 1 gusting 5 3.3
2015-Mar-28 12:31 305 0 gusting 3 2.8
2015-Mar-28 12:21 305 2 gusting 4 2.8
2015-Mar-28 12:10 305 1 gusting 4 2.8
2015-Mar-28 12:01 351 0 gusting 2 2.8
2015-Mar-28 11:50 351 1 gusting 2 2.8
2015-Mar-28 11:41 351 2.2
2015-Mar-28 11:30 351 1 gusting 1 2.2
2015-Mar-28 11:21 351 1.7
2015-Mar-28 11:11 351 1.7
2015-Mar-28 11:00 351 0 gusting 2 1.7
2015-Mar-28 10:50 351 1 gusting 2 1.7
2015-Mar-28 10:41 351 1.7
2015-Mar-28 10:31 351 1.1
2015-Mar-28 10:21 351 1.1
2015-Mar-28 10:10 351 0.6
2015-Mar-28 10:01 350 0.6
2015-Mar-28 09:50 350 0 gusting 4 1.1
2015-Mar-28 09:41 355 2 gusting 3 1.1
2015-Mar-28 09:31 349 2 gusting 4 1.1
2015-Mar-28 09:20 258 1 gusting 2 1.1
2015-Mar-28 09:11 257 1.1
2015-Mar-28 09:01 257 1.1
2015-Mar-28 08:51 257 1.1
2015-Mar-28 08:41 257 1.1
2015-Mar-28 08:30 257 1.1
2015-Mar-28 08:21 257 1.1
2015-Mar-28 08:11 257 2 gusting 3 1.1
2015-Mar-28 08:00 258 1 gusting 3 1.7
2015-Mar-28 07:51 257 2 gusting 3 1.7
2015-Mar-28 07:40 241 1 gusting 2 2.2
2015-Mar-28 07:31 241 2.2
2015-Mar-28 07:20 241 2.2
2015-Mar-28 07:11 241 2.2
2015-Mar-28 07:01 241 2.2
2015-Mar-28 06:51 241 2.2
2015-Mar-28 06:41 241 2.2
2015-Mar-28 06:30 241 1.7
2015-Mar-28 06:21 241 1.7
2015-Mar-28 06:11 241 1.7
2015-Mar-28 06:00 241 1 gusting 2 2.2
2015-Mar-28 05:50 241 2.2
2015-Mar-28 05:41 241 2.2
2015-Mar-28 05:31 241 2.2
2015-Mar-28 05:21 241 2.2
2015-Mar-28 05:10 241 2.2
2015-Mar-28 05:01 241 2.8
2015-Mar-28 04:51 241 2.2
2015-Mar-28 04:41 241 2.2
2015-Mar-28 04:31 241 2.2
2015-Mar-28 04:20 241 1.7
2015-Mar-28 04:11 241 1.7
2015-Mar-28 04:01 241 1.7
2015-Mar-28 03:51 241 1.7
2015-Mar-28 03:40 241 1.7
2015-Mar-28 03:31 241 1.7
2015-Mar-28 03:21 241 1.7
2015-Mar-28 03:11 241 1.7
2015-Mar-28 03:01 241 1 gusting 2 1.7
2015-Mar-28 02:51 241 1.7
2015-Mar-28 02:41 241 2.2
2015-Mar-28 02:31 241 2.2
2015-Mar-28 02:20 241 2.2
2015-Mar-28 02:10 241 1 gusting 2 1.7
2015-Mar-28 02:00 241 0 gusting 1 1.7
2015-Mar-28 01:51 241 1.7
2015-Mar-28 01:41 241 1.7
2015-Mar-28 01:31 241 2.2
2015-Mar-28 01:20 241 2.2
2015-Mar-28 01:11 241 2.2
2015-Mar-28 01:01 241 2.2
2015-Mar-28 00:51 241 2.2
2015-Mar-28 00:40 241 2.2
2015-Mar-28 00:31 241 2.2
2015-Mar-28 00:20 241 2.2
2015-Mar-28 00:11 241 2.2
2015-Mar-28 00:00 241 2.2
2015-Mar-27 23:51 241 2.2
2015-Mar-27 23:40 241 2.2
2015-Mar-27 23:30 241 2.2
2015-Mar-27 23:21 241 2.2
2015-Mar-27 23:10 241 2.8
2015-Mar-27 23:01 241 2.8
2015-Mar-27 22:50 241 2.8
2015-Mar-27 22:40 241 0 gusting 2 2.8
2015-Mar-27 22:30 241 2.8
2015-Mar-27 22:21 241 1 gusting 2 2.8
2015-Mar-27 22:11 241 1 gusting 2 2.8
2015-Mar-27 22:01 241 0 gusting 2 3.3
2015-Mar-27 21:50 241 3.3
2015-Mar-27 21:41 241 1 gusting 2 3.3
2015-Mar-27 21:30 241 3.3
2015-Mar-27 21:21 241 0 gusting 1 3.3
2015-Mar-27 21:10 241 3.3
2015-Mar-27 21:01 241 1 gusting 2 3.3
2015-Mar-27 20:51 241 3.3
2015-Mar-27 20:40 241 1 gusting 2 3.9
2015-Mar-27 20:30 241 3.9
2015-Mar-27 20:21 241 1 gusting 4 3.9
2015-Mar-27 20:10 240 2 gusting 5 3.9
2015-Mar-27 20:01 237 2 gusting 6 4.4
2015-Mar-27 19:50 242 4 gusting 6 4.4
2015-Mar-27 19:41 231 4 gusting 6 4.4
2015-Mar-27 19:31 234 2 gusting 6 4.4
2015-Mar-27 19:21 234 2 gusting 5 4.4
2015-Mar-27 19:10 234 1 gusting 5 4.4
2015-Mar-27 19:01 229 3 gusting 7 4.4
2015-Mar-27 18:51 236 4 gusting 9 4.4
2015-Mar-27 18:40 225 5 gusting 7 4.4
2015-Mar-27 18:30 238 4 gusting 9 4.4
2015-Mar-27 18:21 236 3 gusting 6 3.9
2015-Mar-27 18:10 221 4 gusting 10 3.9
2015-Mar-27 18:00 231 5 gusting 11 3.9
2015-Mar-27 17:50 218 8 gusting 12 3.9
2015-Mar-27 17:41 232 6 gusting 10 3.9
2015-Mar-27 17:31 240 4 gusting 8 3.9
2015-Mar-27 17:21 265 7 gusting 9 3.9
2015-Mar-27 17:11 259 3 gusting 12 3.9
2015-Mar-27 17:00 252 5 gusting 13 3.9
2015-Mar-27 16:50 243 8 gusting 13 3.9
2015-Mar-27 16:41 257 7 gusting 11 3.9
2015-Mar-27 16:30 232 5 gusting 12 3.9
2015-Mar-27 16:20 242 7 gusting 11 3.9
2015-Mar-27 16:11 232 4 gusting 13 3.9
2015-Mar-27 16:00 254 10 gusting 13 3.9
2015-Mar-27 15:50 259 7 gusting 11 3.9
2015-Mar-27 15:41 220 7 gusting 13 3.9
2015-Mar-27 15:30 215 5 gusting 13 3.3
2015-Mar-27 15:21 246 6 gusting 13 3.3
2015-Mar-27 15:10 227 7 gusting 14 3.3
2015-Mar-27 15:01 220 6 gusting 14 3.3
2015-Mar-27 14:50 217 6 gusting 17 3.3
2015-Mar-27 14:41 264 10 gusting 15 3.9
2015-Mar-27 14:30 254 11 gusting 15 3.9
2015-Mar-27 14:21 279 10 gusting 15 3.9
2015-Mar-27 14:11 257 7 gusting 14 3.9
2015-Mar-27 14:01 240 6 gusting 13 3.9
2015-Mar-27 13:50 250 11 gusting 16 3.9
2015-Mar-27 13:41 245 11 gusting 15 3.3
2015-Mar-27 13:31 230 9 gusting 14 3.3
2015-Mar-27 13:20 238 4 gusting 13 3.3
2015-Mar-27 13:11 233 9 gusting 12 2.8
2015-Mar-27 13:00 223 6 gusting 12 2.8
2015-Mar-27 12:51 231 6 gusting 10 2.8
2015-Mar-27 12:40 244 4 gusting 10 2.8
2015-Mar-27 12:31 244 6 gusting 13 2.8
2015-Mar-27 12:20 228 7 gusting 13 2.8
2015-Mar-27 12:11 216 4 gusting 11 2.8
2015-Mar-27 12:01 219 6 gusting 12 2.2
2015-Mar-27 11:51 213 8 gusting 11 2.2
2015-Mar-27 11:40 236 6 gusting 11 2.2
2015-Mar-27 11:31 234 6 gusting 12 2.2
2015-Mar-27 11:21 248 6 gusting 9 2.2
2015-Mar-27 11:10 241 4 gusting 11 2.2
2015-Mar-27 11:01 230 5 gusting 7 2.2
2015-Mar-27 10:51 219 4 gusting 10 2.2
2015-Mar-27 10:41 246 6 gusting 9 2.2
2015-Mar-27 10:30 259 5 gusting 8 2.2
2015-Mar-27 10:21 259 5 gusting 7 2.2
2015-Mar-27 10:11 240 4 gusting 11 2.2
2015-Mar-27 10:01 248 6 gusting 10 2.2
2015-Mar-27 09:51 222 4 gusting 7 2.2
2015-Mar-27 09:41 249 4 gusting 8 2.2
2015-Mar-27 09:31 249 5 gusting 10 2.2
2015-Mar-27 09:20 245 5 gusting 10 2.2
2015-Mar-27 09:10 238 6 gusting 9 2.2
2015-Mar-27 09:01 241 5 gusting 11 2.2
2015-Mar-27 08:51 242 7 gusting 12 2.2
2015-Mar-27 08:41 227 5 gusting 8 2.2
2015-Mar-27 08:31 223 6 gusting 10 2.2
2015-Mar-27 08:20 205 6 gusting 10 2.2
2015-Mar-27 08:11 236 6 gusting 11 2.2
2015-Mar-27 08:00 235 5 gusting 11 2.8
2015-Mar-27 07:51 228 5 gusting 9 2.8
2015-Mar-27 07:41 248 4 gusting 10 2.8
2015-Mar-27 07:31 237 6 gusting 10 2.8
2015-Mar-27 07:21 242 5 gusting 11 2.8
2015-Mar-27 07:10 231 6 gusting 11 2.8
2015-Mar-27 07:00 243 6 gusting 13 2.8
2015-Mar-27 06:51 209 7 gusting 12 2.8
2015-Mar-27 06:40 264 6 gusting 12 2.8
2015-Mar-27 06:30 238 6 gusting 15 2.8
2015-Mar-27 06:20 221 7 gusting 13 2.8
2015-Mar-27 06:11 232 10 gusting 14 2.8
2015-Mar-27 06:00 234 10 gusting 15 3.3
2015-Mar-27 05:50 220 11 gusting 16 3.3
2015-Mar-27 05:40 223 9 gusting 16 2.8
2015-Mar-27 05:31 205 8 gusting 16 2.8
2015-Mar-27 05:20 225 9 gusting 15 2.8
2015-Mar-27 05:11 243 8 gusting 15 2.8
2015-Mar-27 05:00 227 7 gusting 18 3.3
2015-Mar-27 04:50 250 6 gusting 13 3.3
2015-Mar-27 04:40 242 9 gusting 19 3.3
2015-Mar-27 04:31 260 12 gusting 18 3.3
2015-Mar-27 04:20 260 12 gusting 22 3.3
2015-Mar-27 04:11 248 13 gusting 21 3.3
2015-Mar-27 04:00 236 10 gusting 19 2.8
2015-Mar-27 03:50 273 11 gusting 26 3.3
2015-Mar-27 03:40 236 9 gusting 26 3.3
2015-Mar-27 03:31 225 12 gusting 27 3.3
2015-Mar-27 03:20 244 12 gusting 27 3.3
2015-Mar-27 03:11 242 19 gusting 26 3.3
2015-Mar-27 03:00 225 9 gusting 22 2.8
2015-Mar-27 02:50 226 13 gusting 23 2.8
2015-Mar-27 02:40 234 10 gusting 23 2.8
2015-Mar-27 02:31 263 14 gusting 27 2.8
2015-Mar-27 02:20 226 13 gusting 25 2.8
2015-Mar-27 02:10 236 13 gusting 24 2.8
2015-Mar-27 02:01 259 14 gusting 26 2.8
2015-Mar-27 01:51 246 18 gusting 25 2.8
2015-Mar-27 01:40 240 13 gusting 26 2.8
2015-Mar-27 01:31 205 12 gusting 28 2.2
2015-Mar-27 01:21 225 12 gusting 25 2.2
2015-Mar-27 01:11 227 15 gusting 24 2.2
2015-Mar-27 01:01 227 15 gusting 23 2.2